sensor_id;sensor_type;location;lat;lon;timestamp;temperature;humidity
1461;DHT22;724;49.910;12.530;2022-08-21T00:01:31;15.80;99.90
1461;DHT22;724;49.910;12.530;2022-08-21T00:04:03;15.80;99.90
1461;DHT22;724;49.910;12.530;2022-08-21T00:06:30;15.80;99.90
1461;DHT22;724;49.910;12.530;2022-08-21T00:08:58;15.80;99.90
1461;DHT22;724;49.910;12.530;2022-08-21T00:11:25;15.80;99.90
1461;DHT22;724;49.910;12.530;2022-08-21T00:13:52;15.80;99.90
1461;DHT22;724;49.910;12.530;2022-08-21T00:16:19;15.80;99.90
1461;DHT22;724;49.910;12.530;2022-08-21T00:18:47;15.80;99.90
1461;DHT22;724;49.910;12.530;2022-08-21T00:21:15;15.80;99.90
1461;DHT22;724;49.910;12.530;2022-08-21T00:23:42;15.70;99.90
1461;DHT22;724;49.910;12.530;2022-08-21T00:26:09;15.70;99.90
1461;DHT22;724;49.910;12.530;2022-08-21T00:28:36;15.70;99.90
1461;DHT22;724;49.910;12.530;2022-08-21T00:31:02;15.70;99.90
1461;DHT22;724;49.910;12.530;2022-08-21T00:33:30;15.70;99.90
1461;DHT22;724;49.910;12.530;2022-08-21T00:35:58;15.60;99.90
1461;DHT22;724;49.910;12.530;2022-08-21T00:38:25;15.60;99.90
1461;DHT22;724;49.910;12.530;2022-08-21T00:40:56;15.60;99.90
1461;DHT22;724;49.910;12.530;2022-08-21T00:43:27;15.60;99.90
1461;DHT22;724;49.910;12.530;2022-08-21T00:45:55;15.60;99.90
1461;DHT22;724;49.910;12.530;2022-08-21T00:48:23;15.60;99.90
1461;DHT22;724;49.910;12.530;2022-08-21T00:50:53;15.60;99.90
1461;DHT22;724;49.910;12.530;2022-08-21T00:53:24;15.60;99.90
1461;DHT22;724;49.910;12.530;2022-08-21T00:55:51;15.60;99.90
1461;DHT22;724;49.910;12.530;2022-08-21T00:58:18;15.60;99.90
1461;DHT22;724;49.910;12.530;2022-08-21T01:00:48;15.60;99.90
1461;DHT22;724;49.910;12.530;2022-08-21T01:03:17;15.60;99.90
1461;DHT22;724;49.910;12.530;2022-08-21T01:05:44;15.50;99.90
1461;DHT22;724;49.910;12.530;2022-08-21T01:08:13;15.50;99.90
1461;DHT22;724;49.910;12.530;2022-08-21T01:10:42;15.50;99.90
1461;DHT22;724;49.910;12.530;2022-08-21T01:13:10;15.50;99.90
1461;DHT22;724;49.910;12.530;2022-08-21T01:15:40;15.50;99.90
1461;DHT22;724;49.910;12.530;2022-08-21T01:18:10;15.50;99.90
1461;DHT22;724;49.910;12.530;2022-08-21T01:20:41;15.50;99.90
1461;DHT22;724;49.910;12.530;2022-08-21T01:23:10;15.40;99.90
1461;DHT22;724;49.910;12.530;2022-08-21T01:25:36;15.40;99.90
1461;DHT22;724;49.910;12.530;2022-08-21T01:28:09;15.50;99.90
1461;DHT22;724;49.910;12.530;2022-08-21T01:30:39;15.50;99.90
1461;DHT22;724;49.910;12.530;2022-08-21T01:33:06;15.30;99.90
1461;DHT22;724;49.910;12.530;2022-08-21T01:35:33;15.40;99.90
1461;DHT22;724;49.910;12.530;2022-08-21T01:38:00;15.40;99.90
1461;DHT22;724;49.910;12.530;2022-08-21T01:40:28;15.40;99.90
1461;DHT22;724;49.910;12.530;2022-08-21T01:42:55;15.50;99.90
1461;DHT22;724;49.910;12.530;2022-08-21T01:45:22;15.50;99.90
1461;DHT22;724;49.910;12.530;2022-08-21T01:47:49;15.50;99.90
1461;DHT22;724;49.910;12.530;2022-08-21T01:50:18;15.50;99.90
1461;DHT22;724;49.910;12.530;2022-08-21T01:52:45;15.40;99.90
1461;DHT22;724;49.910;12.530;2022-08-21T01:55:14;15.50;99.90
1461;DHT22;724;49.910;12.530;2022-08-21T01:57:43;15.50;99.90
1461;DHT22;724;49.910;12.530;2022-08-21T02:00:14;15.50;99.90
1461;DHT22;724;49.910;12.530;2022-08-21T02:02:41;15.50;99.90
1461;DHT22;724;49.910;12.530;2022-08-21T02:05:09;15.60;99.90
1461;DHT22;724;49.910;12.530;2022-08-21T02:07:37;15.60;99.90
1461;DHT22;724;49.910;12.530;2022-08-21T02:10:07;15.50;99.90
1461;DHT22;724;49.910;12.530;2022-08-21T02:12:34;15.50;99.90
1461;DHT22;724;49.910;12.530;2022-08-21T02:15:04;15.50;99.90
1461;DHT22;724;49.910;12.530;2022-08-21T02:17:38;15.50;99.90
1461;DHT22;724;49.910;12.530;2022-08-21T02:20:07;15.50;99.90
1461;DHT22;724;49.910;12.530;2022-08-21T02:22:34;15.60;99.90
1461;DHT22;724;49.910;12.530;2022-08-21T02:25:01;15.60;99.90
1461;DHT22;724;49.910;12.530;2022-08-21T02:27:27;15.60;99.90
1461;DHT22;724;49.910;12.530;2022-08-21T02:29:56;15.60;99.90
1461;DHT22;724;49.910;12.530;2022-08-21T02:32:25;15.60;99.90
1461;DHT22;724;49.910;12.530;2022-08-21T02:34:51;15.60;99.90
1461;DHT22;724;49.910;12.530;2022-08-21T02:37:18;15.60;99.90
1461;DHT22;724;49.910;12.530;2022-08-21T02:39:45;15.50;99.90
1461;DHT22;724;49.910;12.530;2022-08-21T02:42:12;15.50;99.90
1461;DHT22;724;49.910;12.530;2022-08-21T02:44:38;15.50;99.90
1461;DHT22;724;49.910;12.530;2022-08-21T02:47:05;15.50;99.90
1461;DHT22;724;49.910;12.530;2022-08-21T02:49:33;15.50;99.90
1461;DHT22;724;49.910;12.530;2022-08-21T02:52:00;15.50;99.90
1461;DHT22;724;49.910;12.530;2022-08-21T02:54:27;15.50;99.90
1461;DHT22;724;49.910;12.530;2022-08-21T02:56:54;15.50;99.90
1461;DHT22;724;49.910;12.530;2022-08-21T02:59:20;15.50;99.90
1461;DHT22;724;49.910;12.530;2022-08-21T03:01:47;15.60;99.90
1461;DHT22;724;49.910;12.530;2022-08-21T03:04:14;15.60;99.90
1461;DHT22;724;49.910;12.530;2022-08-21T03:06:42;15.60;99.90
1461;DHT22;724;49.910;12.530;2022-08-21T03:09:09;15.50;99.90
1461;DHT22;724;49.910;12.530;2022-08-21T03:11:37;15.50;99.90
1461;DHT22;724;49.910;12.530;2022-08-21T03:14:03;15.50;99.90
1461;DHT22;724;49.910;12.530;2022-08-21T03:16:31;15.50;99.90
1461;DHT22;724;49.910;12.530;2022-08-21T03:18:57;15.50;99.90
1461;DHT22;724;49.910;12.530;2022-08-21T03:21:25;15.50;99.90
1461;DHT22;724;49.910;12.530;2022-08-21T03:23:53;15.50;99.90
1461;DHT22;724;49.910;12.530;2022-08-21T03:26:19;15.50;99.90
1461;DHT22;724;49.910;12.530;2022-08-21T03:28:46;15.50;99.90
1461;DHT22;724;49.910;12.530;2022-08-21T03:31:14;15.40;99.90
1461;DHT22;724;49.910;12.530;2022-08-21T03:33:40;15.30;99.90
1461;DHT22;724;49.910;12.530;2022-08-21T03:36:08;15.30;99.90
1461;DHT22;724;49.910;12.530;2022-08-21T03:38:36;15.40;99.90
1461;DHT22;724;49.910;12.530;2022-08-21T03:41:05;15.20;99.90
1461;DHT22;724;49.910;12.530;2022-08-21T03:43:32;15.30;99.90
1461;DHT22;724;49.910;12.530;2022-08-21T03:46:00;15.30;99.90
1461;DHT22;724;49.910;12.530;2022-08-21T03:48:27;15.30;99.90
1461;DHT22;724;49.910;12.530;2022-08-21T03:50:54;15.40;99.90
1461;DHT22;724;49.910;12.530;2022-08-21T03:53:22;15.40;99.90
1461;DHT22;724;49.910;12.530;2022-08-21T03:55:50;15.30;99.90
1461;DHT22;724;49.910;12.530;2022-08-21T03:58:21;15.30;99.90
1461;DHT22;724;49.910;12.530;2022-08-21T04:00:51;15.30;99.90
1461;DHT22;724;49.910;12.530;2022-08-21T04:03:22;15.30;99.90
1461;DHT22;724;49.910;12.530;2022-08-21T04:05:49;15.40;99.90
1461;DHT22;724;49.910;12.530;2022-08-21T04:08:16;15.40;99.90
1461;DHT22;724;49.910;12.530;2022-08-21T04:10:45;15.40;99.90
1461;DHT22;724;49.910;12.530;2022-08-21T04:13:13;15.40;99.90
1461;DHT22;724;49.910;12.530;2022-08-21T04:15:42;15.40;99.90
1461;DHT22;724;49.910;12.530;2022-08-21T04:18:09;15.40;99.90
1461;DHT22;724;49.910;12.530;2022-08-21T04:20:36;15.50;99.90
1461;DHT22;724;49.910;12.530;2022-08-21T04:23:03;15.50;99.90
1461;DHT22;724;49.910;12.530;2022-08-21T04:25:30;15.50;99.90
1461;DHT22;724;49.910;12.530;2022-08-21T04:27:57;15.60;99.90
1461;DHT22;724;49.910;12.530;2022-08-21T04:30:24;15.50;99.90
1461;DHT22;724;49.910;12.530;2022-08-21T04:32:52;15.50;99.90
1461;DHT22;724;49.910;12.530;2022-08-21T04:35:21;15.50;99.90
1461;DHT22;724;49.910;12.530;2022-08-21T04:37:48;15.50;99.90
1461;DHT22;724;49.910;12.530;2022-08-21T04:40:17;15.40;99.90
1461;DHT22;724;49.910;12.530;2022-08-21T04:42:46;15.40;99.90
1461;DHT22;724;49.910;12.530;2022-08-21T04:45:19;15.20;99.90
1461;DHT22;724;49.910;12.530;2022-08-21T04:47:49;15.40;99.90
1461;DHT22;724;49.910;12.530;2022-08-21T04:50:17;15.40;99.90
1461;DHT22;724;49.910;12.530;2022-08-21T04:52:45;15.30;99.90
1461;DHT22;724;49.910;12.530;2022-08-21T04:55:13;15.40;99.90
1461;DHT22;724;49.910;12.530;2022-08-21T04:57:40;15.40;99.90
1461;DHT22;724;49.910;12.530;2022-08-21T05:00:09;15.40;99.90
1461;DHT22;724;49.910;12.530;2022-08-21T05:02:39;15.40;99.90
1461;DHT22;724;49.910;12.530;2022-08-21T05:05:07;15.50;99.90
1461;DHT22;724;49.910;12.530;2022-08-21T05:07:35;15.30;99.90
1461;DHT22;724;49.910;12.530;2022-08-21T05:10:03;15.30;99.90
1461;DHT22;724;49.910;12.530;2022-08-21T05:12:31;15.40;99.90
1461;DHT22;724;49.910;12.530;2022-08-21T05:14:58;15.40;99.90
1461;DHT22;724;49.910;12.530;2022-08-21T05:17:25;15.60;99.90
1461;DHT22;724;49.910;12.530;2022-08-21T05:19:52;15.60;99.90
1461;DHT22;724;49.910;12.530;2022-08-21T05:22:19;15.60;99.90
1461;DHT22;724;49.910;12.530;2022-08-21T05:24:48;15.60;99.90
1461;DHT22;724;49.910;12.530;2022-08-21T05:27:14;15.60;99.90
1461;DHT22;724;49.910;12.530;2022-08-21T05:29:41;15.70;99.90
1461;DHT22;724;49.910;12.530;2022-08-21T05:32:09;15.80;99.90
1461;DHT22;724;49.910;12.530;2022-08-21T05:34:36;15.80;92.00
1461;DHT22;724;49.910;12.530;2022-08-21T05:37:03;15.80;1.00
1461;DHT22;724;49.910;12.530;2022-08-21T05:39:30;15.80;1.00
1461;DHT22;724;49.910;12.530;2022-08-21T05:41:58;15.90;1.00
1461;DHT22;724;49.910;12.530;2022-08-21T05:44:25;16.00;1.00
1461;DHT22;724;49.910;12.530;2022-08-21T05:46:52;16.00;99.90
1461;DHT22;724;49.910;12.530;2022-08-21T05:49:18;16.10;99.90
1461;DHT22;724;49.910;12.530;2022-08-21T05:51:45;16.20;90.30
1461;DHT22;724;49.910;12.530;2022-08-21T05:54:12;16.20;1.00
1461;DHT22;724;49.910;12.530;2022-08-21T05:56:39;16.20;1.00
1461;DHT22;724;49.910;12.530;2022-08-21T05:59:07;16.30;1.00
1461;DHT22;724;49.910;12.530;2022-08-21T06:01:33;16.40;99.90
1461;DHT22;724;49.910;12.530;2022-08-21T06:04:01;16.30;99.90
1461;DHT22;724;49.910;12.530;2022-08-21T06:06:28;16.50;99.90
1461;DHT22;724;49.910;12.530;2022-08-21T06:08:54;16.40;1.00
1461;DHT22;724;49.910;12.530;2022-08-21T06:11:21;16.30;1.00
1461;DHT22;724;49.910;12.530;2022-08-21T06:13:48;16.40;1.00
1461;DHT22;724;49.910;12.530;2022-08-21T06:16:16;16.40;1.00
1461;DHT22;724;49.910;12.530;2022-08-21T06:18:44;16.50;1.00
1461;DHT22;724;49.910;12.530;2022-08-21T06:21:12;16.70;1.00
1461;DHT22;724;49.910;12.530;2022-08-21T06:23:39;16.70;99.90
1461;DHT22;724;49.910;12.530;2022-08-21T06:26:07;16.70;99.90
1461;DHT22;724;49.910;12.530;2022-08-21T06:28:35;16.90;99.90
1461;DHT22;724;49.910;12.530;2022-08-21T06:31:10;17.10;1.00
1461;DHT22;724;49.910;12.530;2022-08-21T06:33:38;17.60;1.00
1461;DHT22;724;49.910;12.530;2022-08-21T06:36:05;17.90;99.90
1461;DHT22;724;49.910;12.530;2022-08-21T06:38:32;17.90;21.10
1461;DHT22;724;49.910;12.530;2022-08-21T06:40:59;18.50;1.00
1461;DHT22;724;49.910;12.530;2022-08-21T06:43:26;18.90;1.00
1461;DHT22;724;49.910;12.530;2022-08-21T06:45:53;19.60;99.90
1461;DHT22;724;49.910;12.530;2022-08-21T06:48:20;20.10;99.90
1461;DHT22;724;49.910;12.530;2022-08-21T06:50:48;19.70;99.90
1461;DHT22;724;49.910;12.530;2022-08-21T06:53:17;19.80;1.00
1461;DHT22;724;49.910;12.530;2022-08-21T06:55:44;19.90;1.00
1461;DHT22;724;49.910;12.530;2022-08-21T06:58:12;19.40;1.00
1461;DHT22;724;49.910;12.530;2022-08-21T07:00:40;19.00;1.00
1461;DHT22;724;49.910;12.530;2022-08-21T07:03:07;18.50;11.00
1461;DHT22;724;49.910;12.530;2022-08-21T07:05:33;18.40;99.90
1461;DHT22;724;49.910;12.530;2022-08-21T07:08:02;18.40;86.80
1461;DHT22;724;49.910;12.530;2022-08-21T07:10:29;18.50;90.00
1461;DHT22;724;49.910;12.530;2022-08-21T07:12:56;18.40;97.80
1461;DHT22;724;49.910;12.530;2022-08-21T07:15:22;18.30;99.90
1461;DHT22;724;49.910;12.530;2022-08-21T07:17:49;18.70;98.30
1461;DHT22;724;49.910;12.530;2022-08-21T07:20:16;18.90;1.00
1461;DHT22;724;49.910;12.530;2022-08-21T07:22:43;19.20;1.00
1461;DHT22;724;49.910;12.530;2022-08-21T07:25:11;19.10;1.00
1461;DHT22;724;49.910;12.530;2022-08-21T07:27:38;18.90;1.00
1461;DHT22;724;49.910;12.530;2022-08-21T07:30:06;18.80;1.00
1461;DHT22;724;49.910;12.530;2022-08-21T07:32:33;18.40;1.00
1461;DHT22;724;49.910;12.530;2022-08-21T07:35:00;18.40;1.00
1461;DHT22;724;49.910;12.530;2022-08-21T07:37:26;18.30;23.80
1461;DHT22;724;49.910;12.530;2022-08-21T07:39:53;18.00;98.50
1461;DHT22;724;49.910;12.530;2022-08-21T07:42:21;18.10;99.90
1461;DHT22;724;49.910;12.530;2022-08-21T07:44:48;18.40;99.90
1461;DHT22;724;49.910;12.530;2022-08-21T07:47:15;19.10;1.00
1461;DHT22;724;49.910;12.530;2022-08-21T07:49:42;19.20;1.00
1461;DHT22;724;49.910;12.530;2022-08-21T07:52:08;19.30;1.00
1461;DHT22;724;49.910;12.530;2022-08-21T07:54:35;19.20;1.00
1461;DHT22;724;49.910;12.530;2022-08-21T07:57:02;19.10;1.00
1461;DHT22;724;49.910;12.530;2022-08-21T07:59:30;19.10;1.00
1461;DHT22;724;49.910;12.530;2022-08-21T08:01:57;19.70;1.00
1461;DHT22;724;49.910;12.530;2022-08-21T08:04:24;19.70;1.00
1461;DHT22;724;49.910;12.530;2022-08-21T08:06:51;19.60;1.00
1461;DHT22;724;49.910;12.530;2022-08-21T08:09:18;19.70;1.00
1461;DHT22;724;49.910;12.530;2022-08-21T08:11:45;19.80;1.00
1461;DHT22;724;49.910;12.530;2022-08-21T08:14:11;19.70;1.00
1461;DHT22;724;49.910;12.530;2022-08-21T08:16:39;20.40;1.00
1461;DHT22;724;49.910;12.530;2022-08-21T08:19:07;20.80;1.00
1461;DHT22;724;49.910;12.530;2022-08-21T08:21:34;21.00;1.00
1461;DHT22;724;49.910;12.530;2022-08-21T08:24:03;22.20;1.00
1461;DHT22;724;49.910;12.530;2022-08-21T08:26:30;23.30;1.00
1461;DHT22;724;49.910;12.530;2022-08-21T08:28:56;24.30;1.00
1461;DHT22;724;49.910;12.530;2022-08-21T08:31:23;24.40;99.90
1461;DHT22;724;49.910;12.530;2022-08-21T08:33:52;24.70;99.90
1461;DHT22;724;49.910;12.530;2022-08-21T08:36:18;22.60;99.90
1461;DHT22;724;49.910;12.530;2022-08-21T08:38:46;22.00;99.90
1461;DHT22;724;49.910;12.530;2022-08-21T08:41:15;21.50;99.90
1461;DHT22;724;49.910;12.530;2022-08-21T08:43:48;21.20;99.90
1461;DHT22;724;49.910;12.530;2022-08-21T08:46:18;20.80;99.90
1461;DHT22;724;49.910;12.530;2022-08-21T08:48:49;20.60;99.90
1461;DHT22;724;49.910;12.530;2022-08-21T08:51:23;20.10;99.90
1461;DHT22;724;49.910;12.530;2022-08-21T08:53:52;20.30;99.90
1461;DHT22;724;49.910;12.530;2022-08-21T08:56:26;20.60;99.90
1461;DHT22;724;49.910;12.530;2022-08-21T08:58:54;21.70;99.90
1461;DHT22;724;49.910;12.530;2022-08-21T09:01:23;22.80;99.90
1461;DHT22;724;49.910;12.530;2022-08-21T09:03:50;23.50;99.90
1461;DHT22;724;49.910;12.530;2022-08-21T09:06:34;24.50;99.90
1461;DHT22;724;49.910;12.530;2022-08-21T09:09:12;25.00;99.90
1461;DHT22;724;49.910;12.530;2022-08-21T09:11:48;25.70;99.90
1461;DHT22;724;49.910;12.530;2022-08-21T09:14:26;24.70;99.90
1461;DHT22;724;49.910;12.530;2022-08-21T09:17:04;24.30;99.90
1461;DHT22;724;49.910;12.530;2022-08-21T09:19:44;23.80;99.90
1461;DHT22;724;49.910;12.530;2022-08-21T09:22:26;23.80;99.90
1461;DHT22;724;49.910;12.530;2022-08-21T09:25:02;23.90;99.90
1461;DHT22;724;49.910;12.530;2022-08-21T09:27:35;23.50;99.90
1461;DHT22;724;49.910;12.530;2022-08-21T09:30:06;24.20;99.90
1461;DHT22;724;49.910;12.530;2022-08-21T09:32:36;25.70;99.90
1461;DHT22;724;49.910;12.530;2022-08-21T09:37:49;26.80;99.90
1461;DHT22;724;49.910;12.530;2022-08-21T09:40:29;26.40;88.60
1461;DHT22;724;49.910;12.530;2022-08-21T09:42:58;24.70;71.70
1461;DHT22;724;49.910;12.530;2022-08-21T09:45:26;23.90;73.50
1461;DHT22;724;49.910;12.530;2022-08-21T09:47:53;23.90;90.80
1461;DHT22;724;49.910;12.530;2022-08-21T09:50:23;24.20;86.40
1461;DHT22;724;49.910;12.530;2022-08-21T09:52:54;23.40;64.20
1461;DHT22;724;49.910;12.530;2022-08-21T09:55:30;24.70;71.20
1461;DHT22;724;49.910;12.530;2022-08-21T09:58:16;25.70;43.80
1461;DHT22;724;49.910;12.530;2022-08-21T10:00:44;26.70;34.20
1461;DHT22;724;49.910;12.530;2022-08-21T10:03:14;25.90;21.80
1461;DHT22;724;49.910;12.530;2022-08-21T10:05:52;25.80;14.20
1461;DHT22;724;49.910;12.530;2022-08-21T10:08:21;26.80;1.00
1461;DHT22;724;49.910;12.530;2022-08-21T10:10:53;26.90;1.00
1461;DHT22;724;49.910;12.530;2022-08-21T10:13:25;25.50;1.00
1461;DHT22;724;49.910;12.530;2022-08-21T10:16:03;25.50;1.00
1461;DHT22;724;49.910;12.530;2022-08-21T10:18:38;26.80;1.00
1461;DHT22;724;49.910;12.530;2022-08-21T10:21:13;27.60;1.00
1461;DHT22;724;49.910;12.530;2022-08-21T10:23:54;28.10;1.00
1461;DHT22;724;49.910;12.530;2022-08-21T10:26:33;27.70;1.00
1461;DHT22;724;49.910;12.530;2022-08-21T10:29:07;27.40;1.00
1461;DHT22;724;49.910;12.530;2022-08-21T10:31:42;27.50;1.00
1461;DHT22;724;49.910;12.530;2022-08-21T10:34:22;28.00;1.00
1461;DHT22;724;49.910;12.530;2022-08-21T10:37:01;28.20;1.00
1461;DHT22;724;49.910;12.530;2022-08-21T10:39:37;26.80;1.00
1461;DHT22;724;49.910;12.530;2022-08-21T10:42:22;26.50;1.00
1461;DHT22;724;49.910;12.530;2022-08-21T10:45:01;26.90;1.00
1461;DHT22;724;49.910;12.530;2022-08-21T10:47:34;25.80;1.00
1461;DHT22;724;49.910;12.530;2022-08-21T10:50:08;25.40;1.00
1461;DHT22;724;49.910;12.530;2022-08-21T10:52:50;27.00;1.00
1461;DHT22;724;49.910;12.530;2022-08-21T10:55:26;28.80;1.00
1461;DHT22;724;49.910;12.530;2022-08-21T10:57:58;27.60;1.00
1461;DHT22;724;49.910;12.530;2022-08-21T11:00:29;26.60;1.00
1461;DHT22;724;49.910;12.530;2022-08-21T11:03:02;25.20;1.00
1461;DHT22;724;49.910;12.530;2022-08-21T11:05:33;25.20;1.00
1461;DHT22;724;49.910;12.530;2022-08-21T11:08:03;26.30;1.00
1461;DHT22;724;49.910;12.530;2022-08-21T11:10:39;26.80;1.00
1461;DHT22;724;49.910;12.530;2022-08-21T11:13:11;26.30;1.00
1461;DHT22;724;49.910;12.530;2022-08-21T11:15:45;25.20;1.00
1461;DHT22;724;49.910;12.530;2022-08-21T11:18:21;26.00;1.00
1461;DHT22;724;49.910;12.530;2022-08-21T11:20:52;26.90;1.00
1461;DHT22;724;49.910;12.530;2022-08-21T11:23:26;27.20;1.00
1461;DHT22;724;49.910;12.530;2022-08-21T11:26:00;26.20;1.00
1461;DHT22;724;49.910;12.530;2022-08-21T11:28:32;25.30;1.00
1461;DHT22;724;49.910;12.530;2022-08-21T11:31:11;24.80;1.00
1461;DHT22;724;49.910;12.530;2022-08-21T11:33:49;25.70;1.00
1461;DHT22;724;49.910;12.530;2022-08-21T11:36:29;25.60;1.00
1461;DHT22;724;49.910;12.530;2022-08-21T11:39:06;26.30;1.00
1461;DHT22;724;49.910;12.530;2022-08-21T11:41:43;26.40;1.00
1461;DHT22;724;49.910;12.530;2022-08-21T11:44:18;26.30;1.00
1461;DHT22;724;49.910;12.530;2022-08-21T11:46:51;26.40;1.00
1461;DHT22;724;49.910;12.530;2022-08-21T11:49:39;26.60;1.00
1461;DHT22;724;49.910;12.530;2022-08-21T11:52:14;26.00;1.00
1461;DHT22;724;49.910;12.530;2022-08-21T11:54:45;26.10;1.00
1461;DHT22;724;49.910;12.530;2022-08-21T11:57:19;26.10;1.00
1461;DHT22;724;49.910;12.530;2022-08-21T11:59:51;25.60;1.00
1461;DHT22;724;49.910;12.530;2022-08-21T12:02:21;25.60;1.00
1461;DHT22;724;49.910;12.530;2022-08-21T12:04:51;25.50;1.00
1461;DHT22;724;49.910;12.530;2022-08-21T12:07:30;24.70;1.00
1461;DHT22;724;49.910;12.530;2022-08-21T12:09:59;24.30;1.00
1461;DHT22;724;49.910;12.530;2022-08-21T12:12:30;24.50;1.00
1461;DHT22;724;49.910;12.530;2022-08-21T12:15:27;25.10;1.00
1461;DHT22;724;49.910;12.530;2022-08-21T12:18:00;24.60;1.00
1461;DHT22;724;49.910;12.530;2022-08-21T12:20:39;24.80;1.00
1461;DHT22;724;49.910;12.530;2022-08-21T12:23:24;24.50;1.00
1461;DHT22;724;49.910;12.530;2022-08-21T12:26:02;24.40;1.00
1461;DHT22;724;49.910;12.530;2022-08-21T12:28:31;24.60;1.00
1461;DHT22;724;49.910;12.530;2022-08-21T12:30:58;25.00;1.00
1461;DHT22;724;49.910;12.530;2022-08-21T12:33:28;25.10;1.00
1461;DHT22;724;49.910;12.530;2022-08-21T12:36:03;25.20;1.00
1461;DHT22;724;49.910;12.530;2022-08-21T12:38:39;24.90;1.00
1461;DHT22;724;49.910;12.530;2022-08-21T12:41:17;24.70;1.00
1461;DHT22;724;49.910;12.530;2022-08-21T12:43:50;24.80;1.00
1461;DHT22;724;49.910;12.530;2022-08-21T12:46:20;24.90;1.00
1461;DHT22;724;49.910;12.530;2022-08-21T12:48:52;24.90;1.00
1461;DHT22;724;49.910;12.530;2022-08-21T12:51:24;24.60;1.00
1461;DHT22;724;49.910;12.530;2022-08-21T12:53:53;24.70;1.00
1461;DHT22;724;49.910;12.530;2022-08-21T12:56:22;24.60;1.00
1461;DHT22;724;49.910;12.530;2022-08-21T12:58:53;24.80;1.00
1461;DHT22;724;49.910;12.530;2022-08-21T13:01:24;24.70;1.00
1461;DHT22;724;49.910;12.530;2022-08-21T13:03:54;24.40;1.00
1461;DHT22;724;49.910;12.530;2022-08-21T13:06:22;24.60;1.00
1461;DHT22;724;49.910;12.530;2022-08-21T13:08:54;24.30;1.00
1461;DHT22;724;49.910;12.530;2022-08-21T13:11:24;24.20;1.00
1461;DHT22;724;49.910;12.530;2022-08-21T13:13:53;24.50;1.00
1461;DHT22;724;49.910;12.530;2022-08-21T13:16:24;24.40;1.00
1461;DHT22;724;49.910;12.530;2022-08-21T13:18:56;24.40;1.00
1461;DHT22;724;49.910;12.530;2022-08-21T13:21:28;24.70;1.00
1461;DHT22;724;49.910;12.530;2022-08-21T13:24:12;24.80;1.00
1461;DHT22;724;49.910;12.530;2022-08-21T13:26:41;24.70;1.00
1461;DHT22;724;49.910;12.530;2022-08-21T13:29:11;24.90;1.00
1461;DHT22;724;49.910;12.530;2022-08-21T13:31:39;25.20;1.00
1461;DHT22;724;49.910;12.530;2022-08-21T13:34:09;25.00;1.00
1461;DHT22;724;49.910;12.530;2022-08-21T13:36:40;24.60;1.00
1461;DHT22;724;49.910;12.530;2022-08-21T13:39:10;24.70;1.00
1461;DHT22;724;49.910;12.530;2022-08-21T13:41:40;25.00;1.00
1461;DHT22;724;49.910;12.530;2022-08-21T13:44:17;25.20;1.00
1461;DHT22;724;49.910;12.530;2022-08-21T13:46:46;25.30;1.00
1461;DHT22;724;49.910;12.530;2022-08-21T13:49:15;25.50;1.00
1461;DHT22;724;49.910;12.530;2022-08-21T13:51:43;25.40;1.00
1461;DHT22;724;49.910;12.530;2022-08-21T13:54:18;25.20;1.00
1461;DHT22;724;49.910;12.530;2022-08-21T13:56:47;25.10;1.00
1461;DHT22;724;49.910;12.530;2022-08-21T13:59:26;25.10;1.00
1461;DHT22;724;49.910;12.530;2022-08-21T14:01:55;25.10;1.00
1461;DHT22;724;49.910;12.530;2022-08-21T14:04:31;25.30;1.00
1461;DHT22;724;49.910;12.530;2022-08-21T14:06:58;25.10;1.00
1461;DHT22;724;49.910;12.530;2022-08-21T14:09:29;25.40;1.00
1461;DHT22;724;49.910;12.530;2022-08-21T14:11:58;25.30;1.00
1461;DHT22;724;49.910;12.530;2022-08-21T14:14:29;24.90;1.00
1461;DHT22;724;49.910;12.530;2022-08-21T14:16:59;24.90;1.00
1461;DHT22;724;49.910;12.530;2022-08-21T14:19:35;25.00;1.00
1461;DHT22;724;49.910;12.530;2022-08-21T14:22:22;25.00;1.00
1461;DHT22;724;49.910;12.530;2022-08-21T14:24:49;25.10;1.00
1461;DHT22;724;49.910;12.530;2022-08-21T14:27:17;25.50;1.00
1461;DHT22;724;49.910;12.530;2022-08-21T14:29:46;25.20;1.00
1461;DHT22;724;49.910;12.530;2022-08-21T14:32:15;25.00;1.00
1461;DHT22;724;49.910;12.530;2022-08-21T14:34:42;25.30;1.00
1461;DHT22;724;49.910;12.530;2022-08-21T14:37:09;25.60;1.00
1461;DHT22;724;49.910;12.530;2022-08-21T14:39:36;25.40;1.00
1461;DHT22;724;49.910;12.530;2022-08-21T14:42:03;25.50;1.00
1461;DHT22;724;49.910;12.530;2022-08-21T14:44:30;25.30;1.00
1461;DHT22;724;49.910;12.530;2022-08-21T14:46:59;25.00;1.00
1461;DHT22;724;49.910;12.530;2022-08-21T14:49:28;24.90;1.00
1461;DHT22;724;49.910;12.530;2022-08-21T14:51:55;24.90;1.00
1461;DHT22;724;49.910;12.530;2022-08-21T14:54:23;25.10;1.00
1461;DHT22;724;49.910;12.530;2022-08-21T14:56:50;24.90;1.00
1461;DHT22;724;49.910;12.530;2022-08-21T14:59:17;24.80;1.00
1461;DHT22;724;49.910;12.530;2022-08-21T15:01:46;24.50;1.00
1461;DHT22;724;49.910;12.530;2022-08-21T15:04:15;24.20;1.00
1461;DHT22;724;49.910;12.530;2022-08-21T15:06:41;24.00;1.00
1461;DHT22;724;49.910;12.530;2022-08-21T15:09:08;24.10;1.00
1461;DHT22;724;49.910;12.530;2022-08-21T15:11:35;24.40;1.00
1461;DHT22;724;49.910;12.530;2022-08-21T15:14:08;24.30;1.00
1461;DHT22;724;49.910;12.530;2022-08-21T15:16:37;23.80;1.00
1461;DHT22;724;49.910;12.530;2022-08-21T15:19:04;23.50;1.00
1461;DHT22;724;49.910;12.530;2022-08-21T15:21:32;24.10;1.00
1461;DHT22;724;49.910;12.530;2022-08-21T15:23:59;24.80;1.00
1461;DHT22;724;49.910;12.530;2022-08-21T15:26:25;24.90;1.00
1461;DHT22;724;49.910;12.530;2022-08-21T15:28:52;25.20;1.00
1461;DHT22;724;49.910;12.530;2022-08-21T15:31:19;24.90;1.00
1461;DHT22;724;49.910;12.530;2022-08-21T15:33:46;25.00;1.00
1461;DHT22;724;49.910;12.530;2022-08-21T15:36:13;24.70;1.00
1461;DHT22;724;49.910;12.530;2022-08-21T15:38:41;24.70;1.00
1461;DHT22;724;49.910;12.530;2022-08-21T15:41:09;24.70;1.00
1461;DHT22;724;49.910;12.530;2022-08-21T15:43:43;24.70;1.00
1461;DHT22;724;49.910;12.530;2022-08-21T15:46:13;24.50;1.00
1461;DHT22;724;49.910;12.530;2022-08-21T15:48:41;24.40;1.00
1461;DHT22;724;49.910;12.530;2022-08-21T15:51:09;24.40;1.00
1461;DHT22;724;49.910;12.530;2022-08-21T15:53:36;24.00;1.00
1461;DHT22;724;49.910;12.530;2022-08-21T15:56:06;23.50;1.00
1461;DHT22;724;49.910;12.530;2022-08-21T15:58:38;23.70;1.00
1461;DHT22;724;49.910;12.530;2022-08-21T16:01:05;23.80;1.00
1461;DHT22;724;49.910;12.530;2022-08-21T16:03:33;24.00;1.00
1461;DHT22;724;49.910;12.530;2022-08-21T16:05:59;23.80;1.00
1461;DHT22;724;49.910;12.530;2022-08-21T16:08:26;23.60;1.00
1461;DHT22;724;49.910;12.530;2022-08-21T16:10:54;23.70;1.00
1461;DHT22;724;49.910;12.530;2022-08-21T16:13:24;23.60;1.00
1461;DHT22;724;49.910;12.530;2022-08-21T16:15:52;23.50;1.00
1461;DHT22;724;49.910;12.530;2022-08-21T16:18:20;23.60;1.00
1461;DHT22;724;49.910;12.530;2022-08-21T16:20:48;23.60;1.00
1461;DHT22;724;49.910;12.530;2022-08-21T16:23:15;23.80;1.00
1461;DHT22;724;49.910;12.530;2022-08-21T16:25:42;23.70;1.00
1461;DHT22;724;49.910;12.530;2022-08-21T16:28:14;23.40;1.00